sensor_id;sensor_type;location;lat;lon;timestamp;pressure;altitude;pressure_sealevel;temperature;humidity
68891;BME280;55932;48.702;8.884;2022-08-04T00:05:03;95990;;;20.2;51.5
68891;BME280;55932;48.702;8.884;2022-08-04T00:10:02;96000;;;20.1;51.5
68891;BME280;55932;48.702;8.884;2022-08-04T00:12:32;96000;;;20;51.5
68891;BME280;55932;48.702;8.884;2022-08-04T00:15:03;96000;;;20;51.5
68891;BME280;55932;48.702;8.884;2022-08-04T00:22:34;96000;;;19.8;51.5
68891;BME280;55932;48.702;8.884;2022-08-04T00:25:04;96000;;;19.7;52
68891;BME280;55932;48.702;8.884;2022-08-04T00:27:56;96000;;;19.6;52
68891;BME280;55932;48.702;8.884;2022-08-04T00:30:16;96000;;;19.6;52
68891;BME280;55932;48.702;8.884;2022-08-04T00:32:47;96000;;;19.5;52
68891;BME280;55932;48.702;8.884;2022-08-04T00:35:20;96000;;;19.5;52
68891;BME280;55932;48.702;8.884;2022-08-04T00:37:48;96000;;;19.5;52
68891;BME280;55932;48.702;8.884;2022-08-04T00:40:22;96000;;;19.5;52
68891;BME280;55932;48.702;8.884;2022-08-04T00:42:53;96000;;;19.5;52
68891;BME280;55932;48.702;8.884;2022-08-04T00:48:01;95990;;;19.5;52
68891;BME280;55932;48.702;8.884;2022-08-04T00:50:43;95990;;;19.5;51.5
68891;BME280;55932;48.702;8.884;2022-08-04T00:58:09;96000;;;19.4;51.5
68891;BME280;55932;48.702;8.884;2022-08-04T01:07:54;95990;;;19.1;52
68891;BME280;55932;48.702;8.884;2022-08-04T01:10:23;95990;;;19;52
68891;BME280;55932;48.702;8.884;2022-08-04T01:15:25;95990;;;19;52
68891;BME280;55932;48.702;8.884;2022-08-04T01:18:03;96000;;;19;52
68891;BME280;55932;48.702;8.884;2022-08-04T01:30:35;95990;;;18.9;52
68891;BME280;55932;48.702;8.884;2022-08-04T01:33:08;95990;;;18.9;52
68891;BME280;55932;48.702;8.884;2022-08-04T01:35:42;95980;;;18.8;52.5
68891;BME280;55932;48.702;8.884;2022-08-04T01:38:00;95980;;;18.8;52.5
68891;BME280;55932;48.702;8.884;2022-08-04T01:40:35;95980;;;18.7;52.5
68891;BME280;55932;48.702;8.884;2022-08-04T01:43:05;95980;;;18.7;52.5
68891;BME280;55932;48.702;8.884;2022-08-04T01:47:49;95980;;;18.7;52.5
68891;BME280;55932;48.702;8.884;2022-08-04T01:52:46;95970;;;18.7;52
68891;BME280;55932;48.702;8.884;2022-08-04T01:55:16;95980;;;18.8;52
68891;BME280;55932;48.702;8.884;2022-08-04T01:57:48;95980;;;18.8;52
68891;BME280;55932;48.702;8.884;2022-08-04T02:00:18;95970;;;18.8;52
68891;BME280;55932;48.702;8.884;2022-08-04T02:10:26;95970;;;18.7;52
68891;BME280;55932;48.702;8.884;2022-08-04T02:12:51;95980;;;18.8;52
68891;BME280;55932;48.702;8.884;2022-08-04T02:15:23;95970;;;18.7;52
68891;BME280;55932;48.702;8.884;2022-08-04T02:25:23;95970;;;18.6;52.5
68891;BME280;55932;48.702;8.884;2022-08-04T02:33:29;95970;;;18.4;52.5
68891;BME280;55932;48.702;8.884;2022-08-04T02:40:36;95970;;;18.4;52.5
68891;BME280;55932;48.702;8.884;2022-08-04T02:43:06;95960;;;18.4;52.5
68891;BME280;55932;48.702;8.884;2022-08-04T02:45:37;95970;;;18.3;52.5
68891;BME280;55932;48.702;8.884;2022-08-04T02:48:18;95970;;;18.3;52.5
68891;BME280;55932;48.702;8.884;2022-08-04T02:50:46;95960;;;18.2;53
68891;BME280;55932;48.702;8.884;2022-08-04T02:53:06;95960;;;18.1;53
68891;BME280;55932;48.702;8.884;2022-08-04T02:55:36;95960;;;18;53
68891;BME280;55932;48.702;8.884;2022-08-04T02:58:07;95960;;;18;53
68891;BME280;55932;48.702;8.884;2022-08-04T03:03:14;95960;;;18.2;52.5
68891;BME280;55932;48.702;8.884;2022-08-04T03:08:15;95950;;;18.5;52
68891;BME280;55932;48.702;8.884;2022-08-04T03:10:46;95960;;;18.5;52
68891;BME280;55932;48.702;8.884;2022-08-04T03:20:31;95960;;;18.3;52.5
68891;BME280;55932;48.702;8.884;2022-08-04T03:23:04;95950;;;18.3;52.5
68891;BME280;55932;48.702;8.884;2022-08-04T03:25:35;95950;;;18.3;52.5
68891;BME280;55932;48.702;8.884;2022-08-04T03:28:07;95960;;;18.2;52.5
68891;BME280;55932;48.702;8.884;2022-08-04T03:30:34;95960;;;18.2;52.5
68891;BME280;55932;48.702;8.884;2022-08-04T03:38:05;95960;;;18;53
68891;BME280;55932;48.702;8.884;2022-08-04T03:50:41;95960;;;17.5;53
68891;BME280;55932;48.702;8.884;2022-08-04T03:53:16;95960;;;17.5;53
68891;BME280;55932;48.702;8.884;2022-08-04T03:55:39;95960;;;17.4;53
68891;BME280;55932;48.702;8.884;2022-08-04T04:05:40;95950;;;17.9;52.5
68891;BME280;55932;48.702;8.884;2022-08-04T04:10:41;95950;;;18;52.5
68891;BME280;55932;48.702;8.884;2022-08-04T04:13:11;95950;;;18;52.5
68891;BME280;55932;48.702;8.884;2022-08-04T04:18:28;95950;;;18.1;52.5
68891;BME280;55932;48.702;8.884;2022-08-04T04:20:47;95950;;;18.1;52.5
68891;BME280;55932;48.702;8.884;2022-08-04T04:23:14;95950;;;18.2;52
68891;BME280;55932;48.702;8.884;2022-08-04T04:25:45;95950;;;18.2;52
68891;BME280;55932;48.702;8.884;2022-08-04T04:33:17;95960;;;18.1;52.5
68891;BME280;55932;48.702;8.884;2022-08-04T04:38:43;95960;;;18.1;52.5
68891;BME280;55932;48.702;8.884;2022-08-04T04:42:00;95960;;;18.3;52
68891;BME280;55932;48.702;8.884;2022-08-04T04:43:59;95960;;;18.4;52
68891;BME280;55932;48.702;8.884;2022-08-04T04:46:11;95960;;;18.4;52
68891;BME280;55932;48.702;8.884;2022-08-04T04:51:05;95960;;;18.5;52
68891;BME280;55932;48.702;8.884;2022-08-04T04:56:07;95960;;;18.6;52
68891;BME280;55932;48.702;8.884;2022-08-04T05:03:48;95970;;;18.8;51.5
68891;BME280;55932;48.702;8.884;2022-08-04T05:06:20;95970;;;18.9;51.5
68891;BME280;55932;48.702;8.884;2022-08-04T05:08:37;95970;;;18.9;51.5
68891;BME280;55932;48.702;8.884;2022-08-04T05:12:06;95970;;;19.1;51.5
68891;BME280;55932;48.702;8.884;2022-08-04T05:13:32;95960;;;19.1;51.5
68891;BME280;55932;48.702;8.884;2022-08-04T05:16:01;95970;;;19.3;51.5
68891;BME280;55932;48.702;8.884;2022-08-04T05:23:18;95970;;;19.8;50.5
68891;BME280;55932;48.702;8.884;2022-08-04T05:25:51;95970;;;19.9;50.5
68891;BME280;55932;48.702;8.884;2022-08-04T05:28:19;95970;;;20.2;50.5
68891;BME280;55932;48.702;8.884;2022-08-04T05:30:50;95970;;;20.3;50.5
68891;BME280;55932;48.702;8.884;2022-08-04T05:33:21;95970;;;20.4;50.5
68891;BME280;55932;48.702;8.884;2022-08-04T05:35:51;95970;;;20.4;50.5
68891;BME280;55932;48.702;8.884;2022-08-04T05:38:22;95970;;;20.5;50.5
68891;BME280;55932;48.702;8.884;2022-08-04T05:40:51;95970;;;20.6;50.5
68891;BME280;55932;48.702;8.884;2022-08-04T05:43:21;95970;;;20.7;50.5
68891;BME280;55932;48.702;8.884;2022-08-04T05:51:13;95970;;;21;50.5
68891;BME280;55932;48.702;8.884;2022-08-04T05:56:05;95970;;;21.3;50.5
68891;BME280;55932;48.702;8.884;2022-08-04T06:01:05;95970;;;21.5;50
68891;BME280;55932;48.702;8.884;2022-08-04T06:03:35;95980;;;21.6;50
68891;BME280;55932;48.702;8.884;2022-08-04T06:06:05;95980;;;21.7;50
68891;BME280;55932;48.702;8.884;2022-08-04T06:08:35;95980;;;21.9;50
68891;BME280;55932;48.702;8.884;2022-08-04T06:18:25;95970;;;22.8;49
68891;BME280;55932;48.702;8.884;2022-08-04T06:23:26;95980;;;23.2;49
68891;BME280;55932;48.702;8.884;2022-08-04T06:25:57;95980;;;23.4;48.5
68891;BME280;55932;48.702;8.884;2022-08-04T06:28:27;95980;;;23.5;48.5
68891;BME280;55932;48.702;8.884;2022-08-04T06:30:57;95980;;;23.7;48.5
68891;BME280;55932;48.702;8.884;2022-08-04T06:43:30;95980;;;24.5;48
68891;BME280;55932;48.702;8.884;2022-08-04T06:46:00;95980;;;24.6;48
68891;BME280;55932;48.702;8.884;2022-08-04T06:48:30;95980;;;24.6;48
68891;BME280;55932;48.702;8.884;2022-08-04T06:51:01;95980;;;24.8;48
68891;BME280;55932;48.702;8.884;2022-08-04T06:53:43;95970;;;24.9;48
68891;BME280;55932;48.702;8.884;2022-08-04T06:56:14;95980;;;25.2;48
68891;BME280;55932;48.702;8.884;2022-08-04T06:58:44;95980;;;25.4;47.5
68891;BME280;55932;48.702;8.884;2022-08-04T07:01:15;95980;;;25.6;47.5
68891;BME280;55932;48.702;8.884;2022-08-04T07:03:44;95980;;;25.7;47.5
68891;BME280;55932;48.702;8.884;2022-08-04T07:06:14;95990;;;25.9;47.5
68891;BME280;55932;48.702;8.884;2022-08-04T07:13:34;95990;;;28.5;43.5
68891;BME280;55932;48.702;8.884;2022-08-04T07:16:04;95980;;;32.3;38
68891;BME280;55932;48.702;8.884;2022-08-04T07:21:05;95980;;;34.9;36
68891;BME280;55932;48.702;8.884;2022-08-04T07:23:35;95970;;;35.6;35.5
68891;BME280;55932;48.702;8.884;2022-08-04T07:26:06;95970;;;36.7;35
68891;BME280;55932;48.702;8.884;2022-08-04T07:33:38;95970;;;37.8;35
68891;BME280;55932;48.702;8.884;2022-08-04T07:36:08;95980;;;36.8;37
68891;BME280;55932;48.702;8.884;2022-08-04T07:38:39;95970;;;37.4;36.5
68891;BME280;55932;48.702;8.884;2022-08-04T07:46:21;95970;;;36.7;38.5
68891;BME280;55932;48.702;8.884;2022-08-04T07:48:52;95970;;;36.7;38.5
68891;BME280;55932;48.702;8.884;2022-08-04T07:51:21;95970;;;36.8;39
68891;BME280;55932;48.702;8.884;2022-08-04T07:54:08;95970;;;37.1;38.5
68891;BME280;55932;48.702;8.884;2022-08-04T08:01:33;95970;;;38;38
68891;BME280;55932;48.702;8.884;2022-08-04T08:03:54;95970;;;38.7;37.5
68891;BME280;55932;48.702;8.884;2022-08-04T08:06:23;95970;;;38.6;38
68891;BME280;55932;48.702;8.884;2022-08-04T08:08:54;95970;;;38.3;38
68891;BME280;55932;48.702;8.884;2022-08-04T08:19:06;95970;;;38.4;39
68891;BME280;55932;48.702;8.884;2022-08-04T08:21:37;95970;;;38.8;38.5
68891;BME280;55932;48.702;8.884;2022-08-04T08:26:38;95960;;;39.3;38
68891;BME280;55932;48.702;8.884;2022-08-04T08:29:08;95970;;;39.7;37
68891;BME280;55932;48.702;8.884;2022-08-04T08:34:18;95970;;;40;37.5
68891;BME280;55932;48.702;8.884;2022-08-04T08:36:42;95960;;;40.6;37
68891;BME280;55932;48.702;8.884;2022-08-04T08:42:06;95970;;;41;36
68891;BME280;55932;48.702;8.884;2022-08-04T08:44:03;95970;;;40.9;36.5
68891;BME280;55932;48.702;8.884;2022-08-04T08:46:36;95960;;;39.4;38.5
68891;BME280;55932;48.702;8.884;2022-08-04T08:51:43;95970;;;40.4;37
68891;BME280;55932;48.702;8.884;2022-08-04T08:54:28;95960;;;40.2;37.5
68891;BME280;55932;48.702;8.884;2022-08-04T08:59:07;95970;;;38.9;39
68891;BME280;55932;48.702;8.884;2022-08-04T09:04:07;95970;;;40.8;37
68891;BME280;55932;48.702;8.884;2022-08-04T09:09:17;95980;;;41.2;37
68891;BME280;55932;48.702;8.884;2022-08-04T09:11:49;95970;;;41.3;36.5
68891;BME280;55932;48.702;8.884;2022-08-04T09:14:16;95970;;;40.6;37.5
68891;BME280;55932;48.702;8.884;2022-08-04T09:16:46;95970;;;40.3;38.5
68891;BME280;55932;48.702;8.884;2022-08-04T09:19:16;95970;;;40.7;37.5
68891;BME280;55932;48.702;8.884;2022-08-04T09:21:52;95970;;;41.2;37.5
68891;BME280;55932;48.702;8.884;2022-08-04T09:25:10;95970;;;41.2;38
68891;BME280;55932;48.702;8.884;2022-08-04T09:26:39;95970;;;41.8;37
68891;BME280;55932;48.702;8.884;2022-08-04T09:31:27;95960;;;41.9;37.5
68891;BME280;55932;48.702;8.884;2022-08-04T09:36:26;95970;;;41;39
68891;BME280;55932;48.702;8.884;2022-08-04T09:41:28;95960;;;41.2;38.5
68891;BME280;55932;48.702;8.884;2022-08-04T09:46:32;95960;;;40.5;39
68891;BME280;55932;48.702;8.884;2022-08-04T09:49:05;95960;;;40.3;39
68891;BME280;55932;48.702;8.884;2022-08-04T09:52:01;95960;;;40.3;39
68891;BME280;55932;48.702;8.884;2022-08-04T09:56:32;95950;;;40.8;38
68891;BME280;55932;48.702;8.884;2022-08-04T09:59:01;95950;;;41.3;37.5
68891;BME280;55932;48.702;8.884;2022-08-04T10:01:29;95950;;;41.8;37
68891;BME280;55932;48.702;8.884;2022-08-04T10:11:36;95940;;;41.8;37.5
68891;BME280;55932;48.702;8.884;2022-08-04T10:14:14;95930;;;42;37
68891;BME280;55932;48.702;8.884;2022-08-04T10:16:36;95940;;;41.6;38
68891;BME280;55932;48.702;8.884;2022-08-04T10:19:45;95940;;;40.8;39
68891;BME280;55932;48.702;8.884;2022-08-04T10:21:46;95940;;;40.8;39
68891;BME280;55932;48.702;8.884;2022-08-04T10:26:36;95930;;;41;38.5
68891;BME280;55932;48.702;8.884;2022-08-04T10:34:09;95920;;;42.2;37
68891;BME280;55932;48.702;8.884;2022-08-04T10:36:40;95930;;;42.7;37
68891;BME280;55932;48.702;8.884;2022-08-04T10:39:07;95920;;;41.8;37.5
68891;BME280;55932;48.702;8.884;2022-08-04T10:41:39;95920;;;41.2;39
68891;BME280;55932;48.702;8.884;2022-08-04T10:44:12;95920;;;40.9;39
68891;BME280;55932;48.702;8.884;2022-08-04T10:51:41;95910;;;41.5;37.5
68891;BME280;55932;48.702;8.884;2022-08-04T11:01:51;95910;;;42;38
68891;BME280;55932;48.702;8.884;2022-08-04T11:04:22;95920;;;41.3;39
68891;BME280;55932;48.702;8.884;2022-08-04T11:06:51;95920;;;41.6;38.5
68891;BME280;55932;48.702;8.884;2022-08-04T11:09:11;95920;;;41.2;39
68891;BME280;55932;48.702;8.884;2022-08-04T11:11:46;95910;;;41.7;38.5
68891;BME280;55932;48.702;8.884;2022-08-04T11:17:14;95910;;;42.1;38
68891;BME280;55932;48.702;8.884;2022-08-04T11:19:16;95910;;;41.5;38.5
68891;BME280;55932;48.702;8.884;2022-08-04T11:21:46;95910;;;42;38.5
68891;BME280;55932;48.702;8.884;2022-08-04T11:24:16;95910;;;41.6;38.5
68891;BME280;55932;48.702;8.884;2022-08-04T11:26:48;95920;;;40.7;39.5
68891;BME280;55932;48.702;8.884;2022-08-04T11:29:24;95920;;;40;40
68891;BME280;55932;48.702;8.884;2022-08-04T11:34:20;95910;;;38.1;42
68891;BME280;55932;48.702;8.884;2022-08-04T11:37:20;95910;;;39.1;41
68891;BME280;55932;48.702;8.884;2022-08-04T11:39:21;95910;;;38.6;41.5
68891;BME280;55932;48.702;8.884;2022-08-04T11:42:04;95910;;;37.5;42.5
68891;BME280;55932;48.702;8.884;2022-08-04T11:47:02;95910;;;38.9;41
68891;BME280;55932;48.702;8.884;2022-08-04T11:52:00;95920;;;40.7;38
68891;BME280;55932;48.702;8.884;2022-08-04T11:59:42;95920;;;40.5;38
68891;BME280;55932;48.702;8.884;2022-08-04T12:02:29;95920;;;40.4;38.5
68891;BME280;55932;48.702;8.884;2022-08-04T12:04:43;95910;;;40.2;38.5
68891;BME280;55932;48.702;8.884;2022-08-04T12:07:12;95910;;;40.8;38
68891;BME280;55932;48.702;8.884;2022-08-04T12:14:27;95900;;;42.2;36.5
68891;BME280;55932;48.702;8.884;2022-08-04T12:19:25;95910;;;43;36.5
68891;BME280;55932;48.702;8.884;2022-08-04T12:21:53;95900;;;42.7;37
68891;BME280;55932;48.702;8.884;2022-08-04T12:24:25;95900;;;43.2;36.5
68891;BME280;55932;48.702;8.884;2022-08-04T12:26:55;95900;;;42.9;36
68891;BME280;55932;48.702;8.884;2022-08-04T12:29:25;95900;;;42.5;37
68891;BME280;55932;48.702;8.884;2022-08-04T12:31:57;95900;;;42.5;37
68891;BME280;55932;48.702;8.884;2022-08-04T12:34:28;95890;;;42;38
68891;BME280;55932;48.702;8.884;2022-08-04T12:44:48;95890;;;43.1;37
68891;BME280;55932;48.702;8.884;2022-08-04T12:49:40;95880;;;42.8;37
68891;BME280;55932;48.702;8.884;2022-08-04T12:52:09;95880;;;42.7;37
68891;BME280;55932;48.702;8.884;2022-08-04T12:54:39;95870;;;41.8;38
68891;BME280;55932;48.702;8.884;2022-08-04T12:57:09;95880;;;42.3;37.5
68891;BME280;55932;48.702;8.884;2022-08-04T13:07:02;95880;;;44;35.5
68891;BME280;55932;48.702;8.884;2022-08-04T13:09:32;95880;;;44.1;35.5
68891;BME280;55932;48.702;8.884;2022-08-04T13:14:33;95880;;;44.6;35
68891;BME280;55932;48.702;8.884;2022-08-04T13:17:01;95880;;;42;37.5
68891;BME280;55932;48.702;8.884;2022-08-04T13:19:32;95870;;;39.6;40
68891;BME280;55932;48.702;8.884;2022-08-04T13:22:02;95870;;;37.8;42
68891;BME280;55932;48.702;8.884;2022-08-04T13:24:33;95860;;;37.1;43
68891;BME280;55932;48.702;8.884;2022-08-04T13:32:04;95860;;;35.6;44
68891;BME280;55932;48.702;8.884;2022-08-04T13:34:35;95860;;;35.6;44
68891;BME280;55932;48.702;8.884;2022-08-04T13:39:47;95860;;;35.2;44
68891;BME280;55932;48.702;8.884;2022-08-04T13:44:48;95850;;;34.7;44
68891;BME280;55932;48.702;8.884;2022-08-04T13:47:19;95850;;;34.8;44
68891;BME280;55932;48.702;8.884;2022-08-04T13:50:20;95850;;;35.2;43.5
68891;BME280;55932;48.702;8.884;2022-08-04T13:57:10;95850;;;38.7;39.5
68891;BME280;55932;48.702;8.884;2022-08-04T14:04:39;95840;;;41.7;36
68891;BME280;55932;48.702;8.884;2022-08-04T14:09:40;95830;;;41.7;36.5
68891;BME280;55932;48.702;8.884;2022-08-04T14:14:52;95830;;;42.1;36
68891;BME280;55932;48.702;8.884;2022-08-04T14:17:23;95830;;;42.5;35.5
68891;BME280;55932;48.702;8.884;2022-08-04T14:19:53;95830;;;40.7;37
68891;BME280;55932;48.702;8.884;2022-08-04T14:27:12;95830;;;37.5;41
68891;BME280;55932;48.702;8.884;2022-08-04T14:29:43;95820;;;38;40.5
68891;BME280;55932;48.702;8.884;2022-08-04T14:32:12;95820;;;39.7;39
68891;BME280;55932;48.702;8.884;2022-08-04T14:34:43;95820;;;41;37
68891;BME280;55932;48.702;8.884;2022-08-04T14:37:25;95820;;;41.8;36
68891;BME280;55932;48.702;8.884;2022-08-04T14:39:56;95820;;;41.9;36
68891;BME280;55932;48.702;8.884;2022-08-04T14:42:38;95820;;;42.1;35.5
68891;BME280;55932;48.702;8.884;2022-08-04T14:44:53;95820;;;42.9;35
68891;BME280;55932;48.702;8.884;2022-08-04T14:54:46;95810;;;41.9;36.5
68891;BME280;55932;48.702;8.884;2022-08-04T14:57:17;95810;;;42;36.5
68891;BME280;55932;48.702;8.884;2022-08-04T14:59:47;95800;;;41.7;36.5
68891;BME280;55932;48.702;8.884;2022-08-04T15:02:18;95810;;;41.5;37
68891;BME280;55932;48.702;8.884;2022-08-04T15:04:48;95800;;;41.9;36
68891;BME280;55932;48.702;8.884;2022-08-04T15:07:40;95800;;;41.8;36.5
68891;BME280;55932;48.702;8.884;2022-08-04T15:10:00;95800;;;41.5;37
68891;BME280;55932;48.702;8.884;2022-08-04T15:12:30;95800;;;41.6;37
68891;BME280;55932;48.702;8.884;2022-08-04T15:15:00;95800;;;42;36.5
68891;BME280;55932;48.702;8.884;2022-08-04T15:19:50;95810;;;40.2;38
68891;BME280;55932;48.702;8.884;2022-08-04T15:22:21;95800;;;38;40
68891;BME280;55932;48.702;8.884;2022-08-04T15:24:51;95800;;;36.4;42
68891;BME280;55932;48.702;8.884;2022-08-04T15:27:24;95800;;;36.1;42.5
68891;BME280;55932;48.702;8.884;2022-08-04T15:29:53;95800;;;37.8;40.5
68891;BME280;55932;48.702;8.884;2022-08-04T15:32:22;95800;;;38.5;39.5
68891;BME280;55932;48.702;8.884;2022-08-04T15:35:09;95800;;;39.2;38.5
68891;BME280;55932;48.702;8.884;2022-08-04T15:37:41;95810;;;40.1;37.5
68891;BME280;55932;48.702;8.884;2022-08-04T15:40:17;95800;;;40.7;37
68891;BME280;55932;48.702;8.884;2022-08-04T15:42:46;95800;;;40.9;37
68891;BME280;55932;48.702;8.884;2022-08-04T15:44:57;95800;;;40.9;37
68891;BME280;55932;48.702;8.884;2022-08-04T15:47:25;95790;;;40.5;37.5
68891;BME280;55932;48.702;8.884;2022-08-04T15:50:03;95790;;;39.9;38
68891;BME280;55932;48.702;8.884;2022-08-04T15:52:25;95790;;;38.9;38.5
68891;BME280;55932;48.702;8.884;2022-08-04T15:55:59;95790;;;39.1;38.5
68891;BME280;55932;48.702;8.884;2022-08-04T15:58:46;95790;;;39.4;38
68891;BME280;55932;48.702;8.884;2022-08-04T15:59:59;95790;;;39.4;38
68891;BME280;55932;48.702;8.884;2022-08-04T16:02:34;95790;;;39.5;37.5
68891;BME280;55932;48.702;8.884;2022-08-04T16:10:34;95780;;;37.7;39
68891;BME280;55932;48.702;8.884;2022-08-04T16:16:13;95770;;;37.6;39.5
68891;BME280;55932;48.702;8.884;2022-08-04T16:17:41;95770;;;38.2;38.5
68891;BME280;55932;48.702;8.884;2022-08-04T16:20:10;95770;;;38.7;38
68891;BME280;55932;48.702;8.884;2022-08-04T16:22:30;95780;;;39.4;37
68891;BME280;55932;48.702;8.884;2022-08-04T16:25:53;95770;;;39.3;37
68891;BME280;55932;48.702;8.884;2022-08-04T16:27:53;95770;;;37.6;39
68891;BME280;55932;48.702;8.884;2022-08-04T16:30:25;95760;;;36.9;40
68891;BME280;55932;48.702;8.884;2022-08-04T16:35:29;95760;;;38.8;37.5
68891;BME280;55932;48.702;8.884;2022-08-04T16:37:44;95760;;;39.3;37
68891;BME280;55932;48.702;8.884;2022-08-04T16:45:37;95760;;;36.7;40
68891;BME280;55932;48.702;8.884;2022-08-04T16:48:00;95760;;;35.4;41.5
68891;BME280;55932;48.702;8.884;2022-08-04T16:50:15;95750;;;34.5;42.5
68891;BME280;55932;48.702;8.884;2022-08-04T16:55:03;95750;;;34;43
68891;BME280;55932;48.702;8.884;2022-08-04T16:57:34;95750;;;34.6;42.5
68891;BME280;55932;48.702;8.884;2022-08-04T17:00:05;95750;;;34.8;42
68891;BME280;55932;48.702;8.884;2022-08-04T17:07:52;95740;;;34.7;41.5
68891;BME280;55932;48.702;8.884;2022-08-04T17:10:07;95740;;;34.6;41.5
68891;BME280;55932;48.702;8.884;2022-08-04T17:12:37;95740;;;34.6;42
68891;BME280;55932;48.702;8.884;2022-08-04T17:15:20;95740;;;34.6;42
68891;BME280;55932;48.702;8.884;2022-08-04T17:17:49;95740;;;34.5;42
68891;BME280;55932;48.702;8.884;2022-08-04T17:20:25;95740;;;34.4;42
68891;BME280;55932;48.702;8.884;2022-08-04T17:25:22;95730;;;34.3;42
68891;BME280;55932;48.702;8.884;2022-08-04T17:32:41;95730;;;33.9;42.5
68891;BME280;55932;48.702;8.884;2022-08-04T17:35:10;95730;;;33.8;42.5
68891;BME280;55932;48.702;8.884;2022-08-04T17:37:41;95730;;;33.7;42.5
68891;BME280;55932;48.702;8.884;2022-08-04T17:43:01;95730;;;33.4;43
68891;BME280;55932;48.702;8.884;2022-08-04T17:45:24;95730;;;33.2;43
68891;BME280;55932;48.702;8.884;2022-08-04T17:47:56;95730;;;33.1;43
68891;BME280;55932;48.702;8.884;2022-08-04T17:53:05;95730;;;32.8;43.5
68891;BME280;55932;48.702;8.884;2022-08-04T17:55:37;95740;;;32.7;43.5
68891;BME280;55932;48.702;8.884;2022-08-04T18:00:36;95740;;;32.3;44
68891;BME280;55932;48.702;8.884;2022-08-04T18:03:07;95730;;;32.1;44
68891;BME280;55932;48.702;8.884;2022-08-04T18:05:47;95740;;;31.9;44
68891;BME280;55932;48.702;8.884;2022-08-04T18:08:21;95740;;;31.7;44.5
68891;BME280;55932;48.702;8.884;2022-08-04T18:10:40;95740;;;31.4;44.5
68891;BME280;55932;48.702;8.884;2022-08-04T18:18:13;95750;;;30.7;45
68891;BME280;55932;48.702;8.884;2022-08-04T18:20:29;95760;;;30.5;45.5
68891;BME280;55932;48.702;8.884;2022-08-04T18:23:00;95760;;;30.3;45.5
68891;BME280;55932;48.702;8.884;2022-08-04T18:27:50;95760;;;30;45.5
68891;BME280;55932;48.702;8.884;2022-08-04T18:30:20;95760;;;29.8;45.5
68891;BME280;55932;48.702;8.884;2022-08-04T18:32:50;95760;;;29.7;45.5
68891;BME280;55932;48.702;8.884;2022-08-04T18:35:21;95760;;;29.5;46
68891;BME280;55932;48.702;8.884;2022-08-04T18:37:51;95770;;;29.2;46
68891;BME280;55932;48.702;8.884;2022-08-04T18:40:21;95770;;;29.1;46
68891;BME280;55932;48.702;8.884;2022-08-04T18:42:52;95770;;;28.9;46
68891;BME280;55932;48.702;8.884;2022-08-04T18:45:34;95770;;;28.7;46.5
68891;BME280;55932;48.702;8.884;2022-08-04T18:48:04;95770;;;28.6;46.5
68891;BME280;55932;48.702;8.884;2022-08-04T18:50:34;95770;;;28.5;46.5
68891;BME280;55932;48.702;8.884;2022-08-04T18:55:23;95770;;;28.4;46
68891;BME280;55932;48.702;8.884;2022-08-04T18:57:54;95780;;;28.4;46
68891;BME280;55932;48.702;8.884;2022-08-04T19:05:24;95780;;;27.9;46.5
68891;BME280;55932;48.702;8.884;2022-08-04T19:07:55;95790;;;27.7;46.5
68891;BME280;55932;48.702;8.884;2022-08-04T19:10:25;95790;;;27.6;46.5
68891;BME280;55932;48.702;8.884;2022-08-04T19:20:28;95800;;;27;47
68891;BME280;55932;48.702;8.884;2022-08-04T19:22:58;95800;;;26.9;47
68891;BME280;55932;48.702;8.884;2022-08-04T19:25:29;95800;;;26.8;47
68891;BME280;55932;48.702;8.884;2022-08-04T19:27:59;95810;;;26.9;47
68891;BME280;55932;48.702;8.884;2022-08-04T19:30:29;95810;;;26.9;47
68891;BME280;55932;48.702;8.884;2022-08-04T19:33:00;95810;;;27;46.5
68891;BME280;55932;48.702;8.884;2022-08-04T19:35:31;95810;;;27;46.5
68891;BME280;55932;48.702;8.884;2022-08-04T19:38:01;95820;;;27;46.5
68891;BME280;55932;48.702;8.884;2022-08-04T19:45:33;95820;;;26.9;46.5
68891;BME280;55932;48.702;8.884;2022-08-04T19:48:03;95830;;;26.8;46.5
68891;BME280;55932;48.702;8.884;2022-08-04T19:50:45;95830;;;26.7;46.5
68891;BME280;55932;48.702;8.884;2022-08-04T19:53:15;95830;;;26.6;47
68891;BME280;55932;48.702;8.884;2022-08-04T19:55:46;95830;;;26.5;47
68891;BME280;55932;48.702;8.884;2022-08-04T19:58:16;95830;;;26.5;47
68891;BME280;55932;48.702;8.884;2022-08-04T20:00:46;95830;;;26.5;46.5
68891;BME280;55932;48.702;8.884;2022-08-04T20:03:16;95830;;;26.4;47
68891;BME280;55932;48.702;8.884;2022-08-04T20:10:36;95830;;;26.1;47
68891;BME280;55932;48.702;8.884;2022-08-04T20:13:07;95830;;;26;47
68891;BME280;55932;48.702;8.884;2022-08-04T20:15:37;95830;;;25.9;47.5
68891;BME280;55932;48.702;8.884;2022-08-04T20:18:08;95830;;;25.8;47.5
68891;BME280;55932;48.702;8.884;2022-08-04T20:20:38;95830;;;25.7;47
68891;BME280;55932;48.702;8.884;2022-08-04T20:23:08;95830;;;25.7;47
68891;BME280;55932;48.702;8.884;2022-08-04T20:25:39;95830;;;25.6;47
68891;BME280;55932;48.702;8.884;2022-08-04T20:28:09;95830;;;25.5;47.5
68891;BME280;55932;48.702;8.884;2022-08-04T20:30:52;95830;;;25.4;47.5
68891;BME280;55932;48.702;8.884;2022-08-04T20:33:21;95830;;;25.3;47.5
68891;BME280;55932;48.702;8.884;2022-08-04T20:41:03;95830;;;25;48
68891;BME280;55932;48.702;8.884;2022-08-04T20:48:35;95840;;;24.9;48
68891;BME280;55932;48.702;8.884;2022-08-04T20:51:05;95840;;;24.8;48
68891;BME280;55932;48.702;8.884;2022-08-04T20:53:37;95830;;;24.7;48
68891;BME280;55932;48.702;8.884;2022-08-04T20:56:07;95830;;;24.6;48
68891;BME280;55932;48.702;8.884;2022-08-04T20:58:35;95830;;;24.5;48
68891;BME280;55932;48.702;8.884;2022-08-04T21:00:55;95830;;;24.4;48
68891;BME280;55932;48.702;8.884;2022-08-04T21:03:26;95830;;;24.5;48
68891;BME280;55932;48.702;8.884;2022-08-04T21:05:56;95830;;;24.5;48
68891;BME280;55932;48.702;8.884;2022-08-04T21:10:45;95830;;;24.5;47.5
68891;BME280;55932;48.702;8.884;2022-08-04T21:25:55;95820;;;23.9;48
68891;BME280;55932;48.702;8.884;2022-08-04T21:28:19;95820;;;23.8;48.5
68891;BME280;55932;48.702;8.884;2022-08-04T21:30:50;95810;;;23.8;48.5
68891;BME280;55932;48.702;8.884;2022-08-04T21:33:20;95810;;;23.7;48.5
68891;BME280;55932;48.702;8.884;2022-08-04T21:35:50;95810;;;23.6;48.5